aviador You're here:

KROG Decoded Metar

ROGERS in AR, USA
Report Time2017-04-25 05:58:00
UTC Time2017-04-25 06:36:33
Flight Rules vfr VFR
Wind120° at 06 kt
W.Decomp.*RWY 20: 0.6 kt HW 6 kt LCW
W.Rank120° ranks 3
Current wind is below 120° avg. (6.3)
Visibility9999 m
Phenomena:N/A
Clouds:N/A
Expected CloudBase > 2,000 ft AGL from Temp-Dew spread
CeilingNone
Temp12°C (ISA -0)
Dew Point07°C (72% RH)
AAT9.2°C
QNH1005 hPa
Density Alt1,739 ft
Elevation1,362 ft
Report Wrong Elevation
Raw Report
KROG 250558Z AUTO 12006KT 10SM CLR 12/07 A2968 RMK AO2 SLP042
T01220072 10222 20122 58003=

Extra information for KROG:More info

Metar Taf Metar & Taf Last 4 Metars F.Rules Stats Wind Profile Meteogram Temp Stats Airport Information Weather charts Add Link Nearby VenuesMetar ALERT Operation Metar Decoded Social comments

AIRNAV info for KROG